Time;durP1;ratioP1;P1;durP2;ratioP2;P2;SDS_P1;SDS_P2;PMS_P1;PMS_P2;Temp;Humidity;BMP_temperature;BMP_pressure;BME280_temperature;BME280_humidity;BME280_pressure;Samples;Min_cycle;Max_cycle;Signal;HPM_P1;HPM_P2
2023/12/14 00:00:28;;;;;;;11.90;6.68;;;;;;;2.20;100.00;101020.16;5005741;28;20185;-40
2023/12/14 00:02:54;;;;;;;9.70;6.38;;;;;;;2.19;100.00;101018.41;5006106;28;20184;-41
2023/12/14 00:05:19;;;;;;;12.10;5.97;;;;;;;2.21;100.00;101018.41;5009299;28;20623;-40
2023/12/14 00:07:44;;;;;;;11.15;6.22;;;;;;;2.23;100.00;101030.75;4999181;28;20618;-41
2023/12/14 00:10:12;;;;;;;12.35;6.35;;;;;;;2.24;100.00;101029.84;5005835;28;20558;-42
2023/12/14 00:12:37;;;;;;;8.68;5.93;;;;;;;2.28;100.00;101028.09;5007195;28;20255;-44
2023/12/14 00:15:04;;;;;;;11.15;6.43;;;;;;;2.25;100.00;101028.09;5002985;28;20644;-41
2023/12/14 00:17:29;;;;;;;11.38;6.25;;;;;;;2.26;100.00;101035.16;5007780;28;20264;-41
2023/12/14 00:19:55;;;;;;;12.93;6.28;;;;;;;2.28;100.00;101043.97;5009151;28;20702;-38
2023/12/14 00:22:21;;;;;;;12.02;5.65;;;;;;;2.29;100.00;101050.13;5003625;28;20233;-41
2023/12/14 00:24:46;;;;;;;9.73;5.25;;;;;;;2.27;100.00;101042.19;5007490;28;20216;-42
2023/12/14 00:27:12;;;;;;;11.30;5.65;;;;;;;2.33;100.00;101042.19;5006811;28;20241;-40
2023/12/14 00:29:37;;;;;;;13.00;5.82;;;;;;;2.29;100.00;101055.41;4994407;28;20192;-40
2023/12/14 00:32:03;;;;;;;7.15;5.22;;;;;;;2.30;100.00;101063.34;5007219;28;20251;-38
2023/12/14 00:34:28;;;;;;;10.27;5.50;;;;;;;2.28;100.00;101058.94;5003488;28;20188;-38
2023/12/14 00:36:54;;;;;;;10.98;5.40;;;;;;;2.29;100.00;101050.13;5001568;28;20254;-41
2023/12/14 00:39:19;;;;;;;14.10;5.78;;;;;;;2.30;100.00;101060.72;5008328;28;20260;-40
2023/12/14 00:41:45;;;;;;;9.45;5.05;;;;;;;2.29;100.00;101068.63;5010313;28;20215;-42
2023/12/14 00:44:10;;;;;;;14.20;6.32;;;;;;;2.28;100.00;101072.16;5011124;28;20185;-40
2023/12/14 00:46:36;;;;;;;11.77;5.53;;;;;;;2.30;100.00;101073.06;4996199;28;20204;-39
2023/12/14 00:49:02;;;;;;;13.23;5.95;;;;;;;2.32;100.00;101073.91;5011849;28;20546;-43
2023/12/14 00:51:27;;;;;;;9.90;5.45;;;;;;;2.30;100.00;101065.13;5001760;28;20216;-44
2023/12/14 00:53:53;;;;;;;11.15;5.38;;;;;;;2.34;100.00;101069.50;5014518;28;20184;-40
2023/12/14 00:56:18;;;;;;;9.13;5.38;;;;;;;2.30;100.00;101073.94;5011467;28;20205;-42
2023/12/14 00:58:44;;;;;;;12.82;5.30;;;;;;;2.29;100.00;101065.97;5011438;28;20185;-42
2023/12/14 01:01:09;;;;;;;10.60;5.03;;;;;;;2.29;100.00;101079.22;5011476;28;20308;-41
2023/12/14 01:03:35;;;;;;;11.40;5.43;;;;;;;2.30;100.00;101076.56;5011071;28;20252;-44
2023/12/14 01:06:00;;;;;;;13.05;5.70;;;;;;;2.30;100.00;101073.94;5004117;28;20757;-44
2023/12/14 01:08:25;;;;;;;9.43;5.57;;;;;;;2.29;100.00;101069.50;5005896;28;20200;-44
2023/12/14 01:10:51;;;;;;;10.75;5.22;;;;;;;2.35;100.00;101077.44;5006700;28;20197;-42
2023/12/14 01:13:16;;;;;;;11.25;5.72;;;;;;;2.29;100.00;101077.44;5001945;28;20619;-40
2023/12/14 01:15:42;;;;;;;13.32;5.88;;;;;;;2.26;100.00;101083.59;5011094;28;20667;-42
2023/12/14 01:18:07;;;;;;;9.35;4.90;;;;;;;2.28;100.00;101098.59;5013460;28;20180;-38
2023/12/14 01:20:32;;;;;;;7.60;4.28;;;;;;;2.29;100.00;101095.94;5008964;28;20173;-39
2023/12/14 01:22:58;;;;;;;8.25;5.03;;;;;;;2.28;100.00;101101.25;5007094;28;20652;-41
2023/12/14 01:25:24;;;;;;;10.30;5.60;;;;;;;2.26;100.00;101103.88;4996339;28;20219;-40
2023/12/14 01:27:49;;;;;;;11.07;5.07;;;;;;;2.26;100.00;101099.47;5013539;28;20195;-37
2023/12/14 01:30:14;;;;;;;7.20;5.25;;;;;;;2.27;100.00;101110.91;5008791;28;20718;-38
2023/12/14 01:32:40;;;;;;;9.52;4.82;;;;;;;2.27;100.00;101118.84;5002777;28;20201;-41
2023/12/14 01:35:06;;;;;;;7.30;4.47;;;;;;;2.26;100.00;101119.75;5006794;28;20279;-41
2023/12/14 01:37:31;;;;;;;6.97;4.60;;;;;;;2.27;100.00;101124.13;5008558;28;20185;-42
2023/12/14 01:39:56;;;;;;;8.80;4.93;;;;;;;2.26;100.00;101132.97;5007996;28;20193;-40
2023/12/14 01:42:22;;;;;;;9.35;5.15;;;;;;;2.29;100.00;101135.59;5009470;28;20193;-41
2023/12/14 01:44:47;;;;;;;8.77;5.05;;;;;;;2.25;100.00;101131.19;5013971;28;20173;-40
2023/12/14 01:47:13;;;;;;;7.57;4.88;;;;;;;2.25;100.00;101125.91;5009847;28;20196;-41
2023/12/14 01:49:39;;;;;;;5.75;4.53;;;;;;;2.21;100.00;101124.16;5006503;28;20173;-44
2023/12/14 01:52:05;;;;;;;8.90;4.65;;;;;;;2.22;100.00;101145.28;5002154;28;20226;-43
2023/12/14 01:54:30;;;;;;;8.68;5.15;;;;;;;2.17;100.00;101128.56;5008518;28;20255;-42
2023/12/14 01:56:56;;;;;;;10.65;5.15;;;;;;;2.19;100.00;101133.84;5010881;28;20176;-44
2023/12/14 01:59:21;;;;;;;11.10;5.00;;;;;;;2.19;100.00;101152.34;5010325;28;20196;-44
2023/12/14 02:01:53;;;;;;;9.32;5.53;;;;;;;2.22;100.00;101145.28;5007786;28;20296;-39
2023/12/14 02:04:18;;;;;;;11.63;5.55;;;;;;;2.19;100.00;101160.28;5007867;28;20533;-38
2023/12/14 02:06:44;;;;;;;7.38;5.32;;;;;;;2.22;100.00;101147.06;4993763;28;20291;-39
2023/12/14 02:09:09;;;;;;;9.45;5.13;;;;;;;2.19;100.00;101150.59;5005894;28;20669;-42
2023/12/14 02:11:35;;;;;;;12.32;4.97;;;;;;;2.18;100.00;101161.16;5005187;28;20744;-38
2023/12/14 02:14:10;;;;;;;9.15;4.82;;;;;;;2.17;100.00;101162.91;5005516;28;20541;-40
2023/12/14 02:16:38;;;;;;;7.60;5.10;;;;;;;2.17;100.00;101159.41;5009510;28;20189;-41
2023/12/14 02:19:04;;;;;;;9.25;5.05;;;;;;;2.21;100.00;101166.47;5009348;28;20724;-40
2023/12/14 02:21:30;;;;;;;10.32;5.30;;;;;;;2.19;100.00;101158.50;5009597;28;20251;-40
2023/12/14 02:23:55;;;;;;;11.63;5.45;;;;;;;2.14;100.00;101162.88;5008799;28;20633;-41
2023/12/14 02:26:21;;;;;;;10.23;5.25;;;;;;;2.18;100.00;101164.66;4996988;28;20549;-43
2023/12/14 02:28:46;;;;;;;10.48;5.35;;;;;;;2.18;100.00;101166.44;5004362;28;20208;-38
2023/12/14 02:31:12;;;;;;;8.07;4.97;;;;;;;2.16;100.00;101162.91;5011412;28;20216;-38
2023/12/14 02:33:37;;;;;;;10.43;5.95;;;;;;;2.16;100.00;101184.91;5008516;28;20177;-43
2023/12/14 02:36:03;;;;;;;11.20;4.90;;;;;;;2.18;100.00;101182.28;5005546;28;20177;-43
2023/12/14 02:38:29;;;;;;;8.18;4.95;;;;;;;2.17;100.00;101189.34;5011548;28;20204;-41
2023/12/14 02:40:55;;;;;;;11.77;5.07;;;;;;;2.19;100.00;101189.34;4995007;28;20239;-39
2023/12/14 02:43:20;;;;;;;7.38;4.90;;;;;;;2.20;100.00;101199.03;5009101;28;20196;-43
2023/12/14 02:45:46;;;;;;;11.20;5.25;;;;;;;2.19;100.00;101199.94;5004973;28;20572;-41
2023/12/14 02:48:12;;;;;;;12.10;5.40;;;;;;;2.19;100.00;101199.94;5004488;28;20184;-43
2023/12/14 02:50:38;;;;;;;8.05;4.85;;;;;;;2.18;100.00;101199.03;5009561;28;20710;-39
2023/12/14 02:53:03;;;;;;;9.23;5.07;;;;;;;2.18;100.00;101199.03;5007623;28;20200;-40
2023/12/14 02:55:29;;;;;;;8.90;5.00;;;;;;;2.19;100.00;101197.28;5003276;28;20166;-39
2023/12/14 02:57:54;;;;;;;10.68;4.95;;;;;;;2.17;100.00;101197.28;5012905;28;20185;-37
2023/12/14 03:07:54;;;;;;;10.40;4.88;;;;;;;2.12;100.00;101212.25;5004358;28;20581;-42
2023/12/14 03:10:19;;;;;;;7.47;4.70;;;;;;;2.14;100.00;101206.94;4996167;28;20174;-39
2023/12/14 03:12:45;;;;;;;8.50;5.07;;;;;;;2.14;100.00;101207.81;4993073;28;20686;-38
2023/12/14 03:15:10;;;;;;;13.07;4.90;;;;;;;2.15;100.00;101224.59;5007115;28;20192;-39
2023/12/14 03:17:36;;;;;;;10.25;5.10;;;;;;;2.13;100.00;101216.66;5012647;28;20184;-40
2023/12/14 03:20:03;;;;;;;7.10;4.57;;;;;;;2.15;100.00;101221.94;4999591;28;20200;-42
2023/12/14 03:22:28;;;;;;;11.30;4.43;;;;;;;2.14;100.00;101226.31;5009991;28;20709;-41
2023/12/14 03:24:54;;;;;;;6.88;4.63;;;;;;;2.14;100.00;101225.44;4994828;28;20173;-41
2023/12/14 03:27:22;;;;;;;10.60;4.85;;;;;;;2.13;100.00;101214.00;5012224;28;20736;-42
2023/12/14 03:29:47;;;;;;;8.65;4.65;;;;;;;2.13;100.00;101229.00;5012333;28;20207;-37
2023/12/14 03:32:13;;;;;;;13.23;4.97;;;;;;;2.18;100.00;101233.38;5011031;28;20200;-43
2023/12/14 03:34:38;;;;;;;8.88;4.88;;;;;;;2.15;100.00;101228.09;4993117;28;20191;-40
2023/12/14 03:37:04;;;;;;;6.28;4.45;;;;;;;2.16;100.00;101231.63;5012233;28;20165;-42
2023/12/14 03:39:29;;;;;;;9.48;4.70;;;;;;;2.15;100.00;101230.75;5011647;28;20180;-38
2023/12/14 03:41:55;;;;;;;7.82;4.70;;;;;;;2.18;100.00;101246.59;4992277;28;20216;-39
2023/12/14 03:44:20;;;;;;;8.98;4.80;;;;;;;2.14;100.00;101239.53;4993040;28;20173;-42
2023/12/14 03:46:46;;;;;;;9.38;4.55;;;;;;;2.15;100.00;101240.44;5011923;28;20266;-39
2023/12/14 03:49:11;;;;;;;11.48;5.18;;;;;;;2.15;100.00;101253.66;5012112;28;20188;-39
2023/12/14 03:51:37;;;;;;;6.05;4.78;;;;;;;2.15;100.00;101254.53;5011724;28;20203;-37
2023/12/14 03:54:02;;;;;;;8.20;4.95;;;;;;;2.13;100.00;101255.41;5007034;28;20185;-41
2023/12/14 03:56:28;;;;;;;9.15;5.45;;;;;;;2.10;100.00;101256.28;4992336;28;20224;-40
2023/12/14 03:58:53;;;;;;;9.25;4.97;;;;;;;2.10;100.00;101247.47;4996568;28;20223;-38
2023/12/14 04:01:20;;;;;;;9.50;5.13;;;;;;;2.10;100.00;101251.00;5011851;28;20199;-41
2023/12/14 04:03:47;;;;;;;7.78;4.95;;;;;;;2.06;100.00;101249.22;5003624;28;20314;-43
2023/12/14 04:06:13;;;;;;;9.45;5.40;;;;;;;2.06;100.00;101258.03;4997555;28;20659;-43
2023/12/14 04:08:41;;;;;;;9.15;5.70;;;;;;;2.09;100.00;101261.56;4990819;28;20196;-43
2023/12/14 04:11:07;;;;;;;8.25;4.78;;;;;;;2.05;100.00;101264.19;4992122;28;20228;-42
2023/12/14 04:13:32;;;;;;;8.60;5.18;;;;;;;2.04;100.00;101267.72;4999789;28;20213;-43
2023/12/14 04:15:58;;;;;;;12.38;5.30;;;;;;;2.03;100.00;101260.69;5011669;28;20223;-43
2023/12/14 04:18:24;;;;;;;7.45;5.65;;;;;;;1.98;100.00;101267.69;4993832;28;20559;-41
2023/12/14 04:20:49;;;;;;;7.95;5.25;;;;;;;2.02;100.00;101260.66;4991948;28;20191;-43
2023/12/14 04:23:15;;;;;;;10.93;6.00;;;;;;;2.02;100.00;101268.59;4997800;28;20622;-41
2023/12/14 04:25:40;;;;;;;12.63;5.07;;;;;;;2.03;100.00;101271.25;5011479;28;20724;-41
2023/12/14 04:28:06;;;;;;;9.65;5.45;;;;;;;2.01;100.00;101265.06;5011698;28;20537;-41
2023/12/14 04:30:31;;;;;;;8.52;5.35;;;;;;;2.00;100.00;101271.22;5004900;28;20558;-42
2023/12/14 04:32:57;;;;;;;7.85;5.40;;;;;;;2.02;100.00;101282.69;5011398;28;20541;-41
2023/12/14 04:35:22;;;;;;;8.25;5.53;;;;;;;2.00;100.00;101284.44;5011538;28;20662;-40
2023/12/14 04:37:48;;;;;;;10.98;5.80;;;;;;;1.98;100.00;101283.53;5011742;28;20169;-39
2023/12/14 04:40:14;;;;;;;13.93;5.38;;;;;;;1.98;100.00;101282.66;5011541;28;20169;-38
2023/12/14 04:42:39;;;;;;;7.22;5.40;;;;;;;1.96;100.00;101290.56;5011265;28;20551;-38
2023/12/14 04:45:05;;;;;;;9.98;5.15;;;;;;;2.01;100.00;101298.53;5007029;28;20532;-38
2023/12/14 04:47:31;;;;;;;9.00;5.15;;;;;;;2.00;100.00;101302.94;4992042;28;20213;-42
2023/12/14 04:49:56;;;;;;;7.38;4.80;;;;;;;2.04;100.00;101296.78;4992039;28;20189;-41
2023/12/14 04:52:22;;;;;;;11.45;5.45;;;;;;;1.98;100.00;101307.31;4991630;28;20248;-42
2023/12/14 04:54:47;;;;;;;6.43;5.20;;;;;;;1.96;100.00;101306.44;5010119;28;20184;-39
2023/12/14 04:57:13;;;;;;;11.35;6.10;;;;;;;1.98;100.00;101320.53;5011161;28;20176;-42
2023/12/14 04:59:41;;;;;;;8.95;5.70;;;;;;;1.95;100.00;101302.03;5003076;28;20293;-42
2023/12/14 05:02:06;;;;;;;8.45;5.72;;;;;;;1.97;100.00;101313.50;4995951;28;20354;-41
2023/12/14 05:04:32;;;;;;;10.05;5.72;;;;;;;1.97;100.00;101317.91;4991724;28;20256;-43
2023/12/14 05:09:31;;;;;;;9.05;5.10;;;;;;;1.96;100.00;101318.78;4975635;28;20218;-39
2023/12/14 05:11:57;;;;;;;10.10;5.18;;;;;;;1.95;100.00;101327.59;4965517;28;20209;-41
2023/12/14 05:14:22;;;;;;;10.00;5.50;;;;;;;1.98;100.00;101323.19;4963496;28;20179;-40
2023/12/14 05:16:48;;;;;;;13.02;5.47;;;;;;;1.95;100.00;101324.94;4967015;28;20190;-40
2023/12/14 05:19:13;;;;;;;9.32;5.30;;;;;;;1.89;100.00;101323.13;4968121;28;20174;-43
2023/12/14 05:21:39;;;;;;;7.43;5.05;;;;;;;1.91;100.00;101326.69;4966634;28;20186;-40
2023/12/14 05:24:05;;;;;;;9.18;5.72;;;;;;;1.92;100.00;101336.34;4971847;28;20182;-40
2023/12/14 05:26:30;;;;;;;8.13;4.80;;;;;;;1.92;100.00;101341.63;4977262;28;20205;-41
2023/12/14 05:28:56;;;;;;;8.45;4.75;;;;;;;1.93;100.00;101329.34;4974616;28;20197;-41
2023/12/14 05:31:21;;;;;;;9.52;4.95;;;;;;;1.94;100.00;101337.25;4966796;28;20206;-40
2023/12/14 05:33:47;;;;;;;10.18;5.43;;;;;;;1.91;100.00;101345.16;4969923;28;20170;-41
2023/12/14 05:36:13;;;;;;;9.00;5.28;;;;;;;1.94;100.00;101346.94;4965300;28;20202;-41
2023/12/14 05:38:39;;;;;;;7.00;5.15;;;;;;;1.92;100.00;101343.41;4966364;28;20177;-40
2023/12/14 05:41:04;;;;;;;8.38;4.88;;;;;;;1.93;100.00;101356.63;4960853;28;20264;-39
2023/12/14 05:43:30;;;;;;;8.85;4.95;;;;;;;1.93;100.00;101348.72;4971088;28;20182;-40
2023/12/14 05:45:56;;;;;;;6.95;4.78;;;;;;;1.94;100.00;101363.66;4966401;28;20285;-40
2023/12/14 05:48:21;;;;;;;9.32;5.18;;;;;;;1.93;100.00;101354.00;4967499;28;20195;-39
2023/12/14 05:50:47;;;;;;;7.93;4.97;;;;;;;1.94;100.00;101349.59;4969412;28;20214;-39
2023/12/14 05:53:13;;;;;;;7.95;5.20;;;;;;;1.95;100.00;101356.66;4970563;28;20186;-38
2023/12/14 05:55:40;;;;;;;13.13;5.35;;;;;;;1.97;100.00;101371.63;4969779;28;20205;-39
2023/12/14 05:58:05;;;;;;;10.40;5.32;;;;;;;1.96;100.00;101368.97;4968015;28;20186;-41
2023/12/14 06:00:31;;;;;;;6.55;4.63;;;;;;;1.97;100.00;101366.34;4970368;28;20186;-40
2023/12/14 06:02:57;;;;;;;7.88;4.70;;;;;;;1.98;100.00;101373.38;4969320;28;20503;-40
2023/12/14 06:05:22;;;;;;;9.32;4.20;;;;;;;1.97;100.00;101376.94;4966085;28;20243;-42
2023/12/14 06:07:48;;;;;;;9.55;4.70;;;;;;;1.98;100.00;101378.69;4966383;28;20190;-40
2023/12/14 06:10:13;;;;;;;9.63;4.50;;;;;;;1.95;100.00;101388.38;4968514;28;20726;-40
2023/12/14 06:12:39;;;;;;;6.55;4.50;;;;;;;1.97;100.00;101389.25;4968119;28;20220;-39
2023/12/14 06:15:05;;;;;;;7.88;4.35;;;;;;;1.95;100.00;101381.31;4967109;28;20217;-39
2023/12/14 06:17:33;;;;;;;8.00;4.72;;;;;;;2.00;100.00;101382.22;4970616;28;20594;-40
2023/12/14 06:19:59;;;;;;;9.48;5.00;;;;;;;2.02;100.00;101396.31;4971582;28;20849;-42
2023/12/14 06:22:24;;;;;;;12.05;4.72;;;;;;;1.95;100.00;101405.09;4964744;28;20603;-39
2023/12/14 06:24:50;;;;;;;7.55;4.55;;;;;;;1.98;100.00;101391.88;4972681;28;20633;-40
2023/12/14 06:27:15;;;;;;;6.53;4.50;;;;;;;2.01;100.00;101406.88;4966815;28;20217;-40
2023/12/14 06:29:41;;;;;;;6.45;4.10;;;;;;;1.93;100.00;101403.31;4965884;28;20190;-40
2023/12/14 06:32:06;;;;;;;4.30;3.72;;;;;;;1.92;100.00;101418.28;4969280;28;20684;-44
2023/12/14 06:34:32;;;;;;;5.18;4.15;;;;;;;1.94;100.00;101428.84;4965760;28;20190;-44
2023/12/14 06:36:59;;;;;;;7.18;3.67;;;;;;;1.91;100.00;101415.63;4971082;28;20185;-43
2023/12/14 06:39:25;;;;;;;5.57;4.20;;;;;;;1.90;100.00;101419.13;4969940;28;20273;-42
2023/12/14 06:41:52;;;;;;;4.72;3.00;;;;;;;1.87;100.00;101421.78;4968056;28;20332;-41
2023/12/14 06:44:18;;;;;;;7.28;3.42;;;;;;;1.86;100.00;101434.09;4970691;28;20174;-42
2023/12/14 06:46:44;;;;;;;4.53;2.83;;;;;;;1.82;100.00;101441.13;4959609;28;20202;-39
2023/12/14 06:49:09;;;;;;;2.70;2.45;;;;;;;1.83;100.00;101442.88;4972227;28;20585;-41
2023/12/14 06:51:35;;;;;;;3.50;2.50;;;;;;;1.90;100.00;101454.38;4961723;28;20200;-40
2023/12/14 06:54:00;;;;;;;3.17;2.17;;;;;;;1.87;100.00;101461.41;4966378;28;20187;-41
2023/12/14 06:56:26;;;;;;;3.45;2.17;;;;;;;1.87;100.00;101459.63;4966462;28;20171;-40
2023/12/14 06:58:51;;;;;;;2.60;2.10;;;;;;;1.92;100.00;101457.03;4967277;28;20308;-41
2023/12/14 07:01:20;;;;;;;3.10;2.00;;;;;;;1.89;100.00;101449.97;4968726;28;20252;-43
2023/12/14 07:03:45;;;;;;;2.22;1.90;;;;;;;1.92;100.00;101464.97;4969232;28;20193;-44
2023/12/14 07:06:15;;;;;;;4.15;2.28;;;;;;;1.97;100.00;101456.19;4966522;28;20201;-44
2023/12/14 07:08:41;;;;;;;3.90;2.13;;;;;;;1.95;100.00;101452.66;4967554;28;20209;-40
2023/12/14 07:11:11;;;;;;;2.25;1.83;;;;;;;1.97;100.00;101452.69;4970757;28;20562;-42
2023/12/14 07:13:37;;;;;;;2.03;1.83;;;;;;;2.00;100.00;101455.34;4965984;28;20178;-42
2023/12/14 07:16:10;;;;;;;3.00;2.03;;;;;;;2.01;100.00;101462.38;4969874;28;20228;-44
2023/12/14 07:18:36;;;;;;;2.53;1.60;;;;;;;2.03;100.00;101464.19;4968820;28;20190;-40
2023/12/14 07:21:03;;;;;;;2.75;2.25;;;;;;;2.02;100.00;101470.31;4968951;28;20559;-44
2023/12/14 07:23:28;;;;;;;5.38;2.10;;;;;;;2.04;100.00;101473.88;4965303;28;20652;-41
2023/12/14 07:25:54;;;;;;;2.90;2.20;;;;;;;2.06;100.00;101476.53;4970860;28;20205;-41
2023/12/14 07:28:20;;;;;;;3.75;2.90;;;;;;;2.12;100.00;101478.31;4967234;28;20407;-43
2023/12/14 07:30:46;;;;;;;3.85;3.03;;;;;;;2.13;100.00;101478.31;4971563;28;20290;-42
2023/12/14 07:33:12;;;;;;;3.38;3.08;;;;;;;2.14;100.00;101489.78;4971055;28;20196;-38
2023/12/14 07:35:38;;;;;;;4.78;2.78;;;;;;;2.17;100.00;101497.75;4970151;28;20186;-42
2023/12/14 07:38:03;;;;;;;4.63;3.10;;;;;;;2.13;100.00;101494.19;4972849;28;20301;-38
2023/12/14 07:40:29;;;;;;;5.88;3.28;;;;;;;2.13;100.00;101496.84;4965779;28;20562;-41
2023/12/14 07:42:54;;;;;;;3.53;2.88;;;;;;;2.16;100.00;101512.69;4963668;28;20203;-39
2023/12/14 07:45:20;;;;;;;3.70;2.90;;;;;;;2.15;100.00;101508.31;4971275;28;20182;-43
2023/12/14 07:47:46;;;;;;;6.05;3.35;;;;;;;2.15;100.00;101507.44;4967603;28;20174;-39
2023/12/14 07:50:12;;;;;;;4.45;2.92;;;;;;;2.15;100.00;101515.34;4950668;28;20245;-42
2023/12/14 07:52:38;;;;;;;6.90;2.95;;;;;;;2.16;100.00;101510.06;4971936;28;20190;-44
2023/12/14 07:55:05;;;;;;;4.70;3.13;;;;;;;2.15;100.00;101513.59;4962048;28;20185;-44
2023/12/14 07:57:30;;;;;;;6.85;3.58;;;;;;;2.17;100.00;101518.91;4967257;28;20528;-43
2023/12/14 07:59:56;;;;;;;7.57;4.30;;;;;;;2.13;100.00;101517.97;4970761;28;20190;-42
2023/12/14 08:02:22;;;;;;;7.60;3.70;;;;;;;2.16;100.00;101530.31;4966648;28;20273;-42
2023/12/14 08:04:47;;;;;;;5.55;3.50;;;;;;;2.11;100.00;101530.28;4970151;28;20727;-42
2023/12/14 08:07:13;;;;;;;6.35;3.50;;;;;;;2.14;100.00;101526.78;4967880;28;20252;-40
2023/12/14 08:09:38;;;;;;;4.85;3.58;;;;;;;2.10;100.00;101541.75;4967336;28;20566;-40
2023/12/14 08:12:04;;;;;;;5.07;3.42;;;;;;;2.13;100.00;101538.25;4969604;28;20265;-41
2023/12/14 08:14:35;;;;;;;7.25;3.85;;;;;;;2.13;100.00;101552.34;4962464;28;20643;-40
2023/12/14 08:17:04;;;;;;;6.00;3.42;;;;;;;2.13;100.00;101555.00;4970708;28;20206;-42
2023/12/14 08:19:30;;;;;;;4.40;3.20;;;;;;;2.14;100.00;101555.88;4969252;28;20188;-40
2023/12/14 08:21:56;;;;;;;9.57;4.18;;;;;;;2.13;100.00;101555.00;4969357;28;20934;-44
2023/12/14 08:24:22;;;;;;;9.35;4.78;;;;;;;2.15;100.00;101563.81;4968477;28;20266;-41
2023/12/14 08:26:47;;;;;;;8.70;5.57;;;;;;;2.15;100.00;101582.31;4969125;28;20292;-40
2023/12/14 08:29:13;;;;;;;10.20;5.00;;;;;;;2.14;100.00;101575.25;4979573;28;20560;-41
2023/12/14 08:31:38;;;;;;;7.63;4.60;;;;;;;2.16;100.00;101578.78;4967172;28;20193;-42
2023/12/14 08:34:04;;;;;;;11.05;4.50;;;;;;;2.18;100.00;101578.81;4968441;28;20182;-41
2023/12/14 08:36:31;;;;;;;7.47;4.90;;;;;;;2.20;100.00;101585.00;4968896;28;20217;-41
2023/12/14 08:38:57;;;;;;;6.57;4.15;;;;;;;2.20;100.00;101590.28;4968363;28;20185;-43
2023/12/14 08:41:22;;;;;;;5.72;3.80;;;;;;;2.20;100.00;101596.44;4965153;28;20257;-43
2023/12/14 08:43:48;;;;;;;7.88;3.75;;;;;;;2.23;100.00;101590.31;4963094;28;20542;-42
2023/12/14 08:46:13;;;;;;;8.00;4.20;;;;;;;2.22;100.00;101599.13;4963281;28;20252;-42
2023/12/14 08:48:38;;;;;;;11.55;4.60;;;;;;;2.19;100.00;101599.97;4970169;28;20699;-39
2023/12/14 08:51:04;;;;;;;6.57;4.53;;;;;;;2.20;100.00;101598.22;4968199;28;20738;-44
2023/12/14 08:53:30;;;;;;;6.50;3.80;;;;;;;2.20;100.00;101609.66;4968219;28;20182;-40
2023/12/14 08:55:55;;;;;;;10.20;3.97;;;;;;;2.24;100.00;101603.53;4968092;28;20200;-42
2023/12/14 08:58:21;;;;;;;9.43;3.58;;;;;;;2.21;100.00;101607.94;4966019;28;20293;-42
2023/12/14 09:00:47;;;;;;;9.95;4.10;;;;;;;2.22;100.00;101599.13;4972127;28;20210;-43
2023/12/14 09:03:12;;;;;;;5.07;3.40;;;;;;;2.25;100.00;101601.78;4969985;28;20178;-42
2023/12/14 09:05:41;;;;;;;6.88;4.18;;;;;;;2.22;100.00;101612.34;4970157;28;20237;-40
2023/12/14 09:08:07;;;;;;;8.30;4.13;;;;;;;2.24;100.00;101611.47;4965898;28;20236;-40
2023/12/14 09:10:33;;;;;;;5.25;3.67;;;;;;;2.26;100.00;101619.44;4972155;28;20174;-41
2023/12/14 09:13:00;;;;;;;8.73;4.10;;;;;;;2.29;100.00;101624.72;4967273;28;20247;-42
2023/12/14 09:15:25;;;;;;;6.18;3.50;;;;;;;2.30;100.00;101615.94;4969433;28;20244;-44
2023/12/14 09:17:51;;;;;;;5.70;3.85;;;;;;;2.26;100.00;101622.94;4972624;28;20174;-44
2023/12/14 09:20:16;;;;;;;5.97;3.92;;;;;;;2.27;100.00;101639.69;4970141;28;20186;-43
2023/12/14 09:22:42;;;;;;;5.10;3.60;;;;;;;2.29;100.00;101640.59;4970420;28;20206;-41
2023/12/14 09:25:09;;;;;;;7.57;4.07;;;;;;;2.33;100.00;101636.22;4968923;28;20174;-41
2023/12/14 09:27:34;;;;;;;7.68;4.25;;;;;;;2.28;100.00;101640.59;4969245;28;20210;-42
2023/12/14 09:30:00;;;;;;;6.22;4.25;;;;;;;2.22;100.00;101639.66;4971611;28;20416;-42
2023/12/14 09:32:25;;;;;;;6.88;4.03;;;;;;;2.20;100.00;101648.44;4971673;28;20273;-42
2023/12/14 09:34:51;;;;;;;6.28;3.88;;;;;;;2.20;100.00;101646.69;4971635;28;20185;-44
2023/12/14 09:37:17;;;;;;;6.75;4.18;;;;;;;2.20;100.00;101649.31;4971017;28;20620;-43
2023/12/14 09:39:43;;;;;;;6.13;4.28;;;;;;;2.17;100.00;101657.25;4970246;28;20228;-42
2023/12/14 09:42:08;;;;;;;4.15;3.72;;;;;;;2.20;100.00;101653.72;4965200;28;20232;-41
2023/12/14 09:44:35;;;;;;;6.35;4.28;;;;;;;2.11;100.00;101649.25;4970161;28;20209;-42
2023/12/14 09:47:02;;;;;;;4.10;3.70;;;;;;;2.17;100.00;101669.59;4972308;28;20615;-41
2023/12/14 09:49:29;;;;;;;6.80;4.10;;;;;;;2.22;100.00;101657.28;4968995;28;20265;-44
2023/12/14 09:51:58;;;;;;;7.82;4.28;;;;;;;2.20;100.00;101651.97;4967807;28;20260;-43
2023/12/14 09:54:28;;;;;;;5.63;4.05;;;;;;;2.19;100.00;101663.44;4967067;28;20182;-43
2023/12/14 09:56:53;;;;;;;6.72;3.58;;;;;;;2.24;100.00;101666.13;4965988;28;20232;-41
2023/12/14 09:59:20;;;;;;;7.05;3.97;;;;;;;2.18;100.00;101664.28;4972001;28;20177;-41
2023/12/14 10:01:46;;;;;;;6.65;4.45;;;;;;;2.19;100.00;101670.50;4969256;28;20221;-41
2023/12/14 10:04:16;;;;;;;7.40;4.13;;;;;;;2.23;100.00;101677.53;4970003;28;20209;-42
2023/12/14 10:06:44;;;;;;;8.07;4.20;;;;;;;2.15;100.00;101664.28;4966671;28;21081;-40
2023/12/14 10:09:13;;;;;;;6.32;4.00;;;;;;;2.18;100.00;101671.34;4973236;28;20190;-43
2023/12/14 10:11:40;;;;;;;6.65;4.10;;;;;;;2.18;100.00;101673.97;4969224;28;20194;-40
2023/12/14 10:14:25;;;;;;;4.90;4.00;;;;;;;2.18;100.00;101687.19;4968147;28;20269;-40
2023/12/14 10:16:51;;;;;;;7.60;4.60;;;;;;;2.22;100.00;101689.00;4974659;28;20716;-41
2023/12/14 10:19:18;;;;;;;5.45;3.92;;;;;;;2.27;100.00;101687.28;4969844;28;20221;-39
2023/12/14 10:21:46;;;;;;;6.85;4.20;;;;;;;2.20;100.00;101690.75;4965238;28;20217;-41
2023/12/14 10:24:12;;;;;;;8.50;4.85;;;;;;;2.25;100.00;101702.25;4961056;28;20178;-42
2023/12/14 10:26:38;;;;;;;6.85;4.13;;;;;;;2.24;100.00;101705.78;4972264;28;20217;-42
2023/12/14 10:29:04;;;;;;;6.63;4.13;;;;;;;2.22;100.00;101708.41;4967597;28;20318;-42
2023/12/14 10:31:37;;;;;;;7.22;4.50;;;;;;;2.20;100.00;101712.78;4967803;28;20189;-39
2023/12/14 10:34:03;;;;;;;8.32;4.65;;;;;;;2.16;100.00;101710.09;4967093;28;20264;-42
2023/12/14 10:36:30;;;;;;;7.80;3.95;;;;;;;2.16;100.00;101723.31;4974121;28;20182;-44
2023/12/14 10:39:01;;;;;;;9.07;4.38;;;;;;;2.17;100.00;101717.16;4966968;28;20208;-44
2023/12/14 10:41:29;;;;;;;6.40;3.83;;;;;;;2.17;100.00;101711.88;4968909;28;20552;-41
2023/12/14 10:43:56;;;;;;;6.57;4.47;;;;;;;2.17;100.00;101710.13;4969243;28;20667;-42
2023/12/14 10:46:22;;;;;;;7.97;4.50;;;;;;;2.25;100.00;101726.03;4954497;28;20300;-42
2023/12/14 10:48:51;;;;;;;8.10;4.45;;;;;;;2.24;100.00;101724.28;4969321;28;20264;-42
2023/12/14 10:51:22;;;;;;;10.13;5.57;;;;;;;2.28;100.00;101726.09;4967144;28;20409;-40
2023/12/14 10:53:48;;;;;;;7.15;4.18;;;;;;;2.29;100.00;101732.25;4964597;28;20261;-41
2023/12/14 10:56:16;;;;;;;8.73;3.83;;;;;;;2.23;100.00;101741.00;4966455;28;20218;-43
2023/12/14 10:58:47;;;;;;;6.25;3.88;;;;;;;2.30;100.00;101732.28;4968168;28;20740;-41
2023/12/14 11:01:16;;;;;;;5.82;4.00;;;;;;;2.45;100.00;101743.00;4967315;28;20202;-40
2023/12/14 11:03:46;;;;;;;9.68;4.28;;;;;;;2.37;100.00;101739.41;4973976;28;20213;-40
2023/12/14 11:06:21;;;;;;;3.20;2.40;;;;;;;1.98;100.00;101735.44;4967621;28;20198;-40
2023/12/14 11:08:46;;;;;;;2.40;1.63;;;;;;;2.09;100.00;101745.25;4965314;28;20701;-42
2023/12/14 11:11:15;;;;;;;2.88;1.50;;;;;;;2.02;100.00;101741.66;4967027;28;20198;-40
2023/12/14 11:13:42;;;;;;;1.63;1.30;;;;;;;2.17;100.00;101743.59;4967957;28;20265;-40
2023/12/14 11:16:07;;;;;;;2.15;1.10;;;;;;;2.12;100.00;101734.72;4964028;28;20638;-40
2023/12/14 11:18:33;;;;;;;3.03;1.33;;;;;;;2.04;100.00;101735.53;4965872;28;20217;-40
2023/12/14 11:21:00;;;;;;;1.77;1.40;;;;;;;2.18;100.00;101740.06;4967664;28;20210;-40
2023/12/14 11:23:26;;;;;;;1.40;1.10;;;;;;;2.14;100.00;101736.50;4968597;28;20185;-43
2023/12/14 11:25:53;;;;;;;1.80;1.70;;;;;;;2.11;100.00;101735.59;4965723;28;20583;-38
2023/12/14 11:28:19;;;;;;;1.65;1.40;;;;;;;2.18;100.00;101740.06;4971915;28;20246;-43